Time;durP1;ratioP1;P1;durP2;ratioP2;P2;SDS_P1;SDS_P2;PMS_P1;PMS_P2;Temp;Humidity;BMP_temperature;BMP_pressure;BME280_temperature;BME280_humidity;BME280_pressure;Samples;Min_cycle;Max_cycle;Signal;HPM_P1;HPM_P2
2021/07/02 00:00:42;;;;;;;24.67;13.97;;;16.70;78.10;;;;;;5001807;28;20468;-84
2021/07/02 00:03:08;;;;;;;22.27;14.07;;;16.70;78.50;;;;;;4983133;28;20434;-85
2021/07/02 00:05:34;;;;;;;24.53;11.43;;;16.70;78.70;;;;;;4998008;28;20179;-85
2021/07/02 00:08:00;;;;;;;21.05;11.65;;;16.70;78.80;;;;;;4986435;28;20250;-86
2021/07/02 00:10:26;;;;;;;24.70;12.27;;;16.70;78.60;;;;;;4987791;28;20282;-84
2021/07/02 00:12:51;;;;;;;20.80;11.30;;;16.70;78.50;;;;;;4986027;28;20203;-85
2021/07/02 00:15:17;;;;;;;19.10;10.20;;;16.80;78.00;;;;;;4985857;28;20185;-84
2021/07/02 00:17:43;;;;;;;21.80;11.60;;;16.80;77.00;;;;;;4986084;28;20634;-84
2021/07/02 00:20:09;;;;;;;22.73;12.33;;;16.70;76.80;;;;;;4985220;28;20462;-85
2021/07/02 00:22:35;;;;;;;19.75;12.20;;;16.70;77.20;;;;;;4980959;28;20203;-85
2021/07/02 00:25:03;;;;;;;22.17;10.60;;;16.60;77.60;;;;;;4980109;28;20202;-85
2021/07/02 00:27:29;;;;;;;27.58;11.93;;;16.50;77.70;;;;;;4998264;28;20266;-85
2021/07/02 00:29:55;;;;;;;26.50;11.57;;;16.50;78.10;;;;;;4981860;28;20269;-86
2021/07/02 00:32:21;;;;;;;26.70;11.77;;;16.60;77.80;;;;;;4980380;28;20269;-85
2021/07/02 00:34:46;;;;;;;23.73;11.10;;;16.50;77.80;;;;;;4980740;28;21013;-85
2021/07/02 00:37:12;;;;;;;17.00;10.20;;;16.60;77.40;;;;;;5001256;28;20243;-84
2021/07/02 00:39:38;;;;;;;17.07;10.53;;;16.50;77.50;;;;;;4986874;28;20241;-84
2021/07/02 00:42:04;;;;;;;21.57;10.70;;;16.50;77.60;;;;;;4999628;28;20565;-85
2021/07/02 00:44:44;;;;;;;21.73;10.93;;;16.50;77.60;;;;;;5000144;28;20175;-84
2021/07/02 00:47:12;;;;;;;30.45;10.60;;;16.50;77.80;;;;;;5002350;28;20563;-84
2021/07/02 00:49:38;;;;;;;13.40;10.48;;;16.50;78.70;;;;;;4995807;28;20550;-84
2021/07/02 00:52:06;;;;;;;19.52;10.35;;;16.60;78.00;;;;;;5003246;28;20214;-84
2021/07/02 00:54:33;;;;;;;19.33;11.80;;;16.70;77.40;;;;;;4985101;28;20278;-84
2021/07/02 00:57:00;;;;;;;15.45;9.90;;;16.80;76.40;;;;;;5001349;28;20279;-84
2021/07/02 00:59:26;;;;;;;16.48;11.02;;;16.80;75.70;;;;;;5001893;28;20198;-84
2021/07/02 01:01:52;;;;;;;15.60;9.77;;;16.80;75.40;;;;;;4983824;28;20206;-84
2021/07/02 01:04:17;;;;;;;16.80;10.53;;;16.80;75.30;;;;;;4984512;28;20172;-84
2021/07/02 01:06:45;;;;;;;16.17;9.03;;;16.80;75.30;;;;;;5001690;28;20183;-84
2021/07/02 01:09:11;;;;;;;14.38;9.60;;;16.90;75.20;;;;;;4986079;28;20517;-84
2021/07/02 01:11:38;;;;;;;21.08;9.35;;;17.00;74.50;;;;;;4984885;28;20207;-84
2021/07/02 01:14:04;;;;;;;17.25;8.60;;;17.00;74.40;;;;;;4985572;28;20588;-84
2021/07/02 01:16:30;;;;;;;19.03;9.97;;;17.10;73.80;;;;;;4985878;28;20183;-84
2021/07/02 01:18:55;;;;;;;14.32;9.05;;;17.10;73.60;;;;;;4985465;28;20203;-84
2021/07/02 01:21:21;;;;;;;10.80;6.87;;;17.00;73.90;;;;;;5001829;28;20191;-84
2021/07/02 01:23:47;;;;;;;20.13;7.83;;;17.00;74.20;;;;;;4983762;28;20186;-84
2021/07/02 01:26:14;;;;;;;11.07;7.10;;;17.00;74.10;;;;;;4984670;28;20175;-84
2021/07/02 01:28:40;;;;;;;14.68;8.55;;;17.00;74.60;;;;;;4984546;28;20229;-84
2021/07/02 01:31:06;;;;;;;15.23;8.50;;;17.00;74.70;;;;;;4984233;28;20199;-84
2021/07/02 01:33:32;;;;;;;15.88;8.27;;;17.00;74.20;;;;;;4984592;28;20442;-84
2021/07/02 01:36:09;;;;;;;13.77;8.43;;;17.10;73.90;;;;;;4984805;28;20183;-84
2021/07/02 01:38:36;;;;;;;16.02;7.53;;;17.10;73.40;;;;;;4985011;28;20266;-84
2021/07/02 01:41:02;;;;;;;11.63;7.55;;;17.10;73.20;;;;;;4998865;28;20195;-85
2021/07/02 01:43:28;;;;;;;16.42;7.07;;;17.10;73.10;;;;;;5003046;28;20180;-84
2021/07/02 01:45:54;;;;;;;15.17;7.83;;;17.10;72.90;;;;;;5001984;28;20194;-84
2021/07/02 01:48:21;;;;;;;11.55;7.70;;;17.00;73.10;;;;;;5018315;28;20425;-84
2021/07/02 01:50:46;;;;;;;13.65;7.47;;;17.00;73.30;;;;;;4997060;28;20206;-84
2021/07/02 01:53:12;;;;;;;14.67;7.10;;;16.90;73.40;;;;;;4981424;28;20595;-84
2021/07/02 01:55:38;;;;;;;9.70;6.43;;;17.00;73.20;;;;;;4981850;28;20183;-84
2021/07/02 01:58:04;;;;;;;16.87;7.30;;;16.90;73.30;;;;;;4982131;28;20566;-84
2021/07/02 02:00:30;;;;;;;12.33;8.17;;;17.00;73.30;;;;;;5000357;28;20402;-85
2021/07/02 02:02:55;;;;;;;10.53;7.43;;;17.20;72.00;;;;;;4982531;28;20211;-84
2021/07/02 02:05:21;;;;;;;10.63;7.57;;;17.00;72.10;;;;;;5000668;28;20424;-84
2021/07/02 02:07:47;;;;;;;17.00;7.97;;;17.00;72.60;;;;;;4985250;28;20175;-83
2021/07/02 02:10:13;;;;;;;14.47;7.80;;;17.00;72.40;;;;;;4985947;28;20233;-84
2021/07/02 02:12:38;;;;;;;10.77;7.47;;;17.10;72.10;;;;;;4981382;28;20199;-85
2021/07/02 02:15:06;;;;;;;11.80;6.27;;;17.20;71.20;;;;;;4999039;28;20406;-85
2021/07/02 02:17:32;;;;;;;16.70;7.07;;;17.30;70.50;;;;;;4981817;28;20205;-84
2021/07/02 02:19:58;;;;;;;9.70;6.40;;;17.40;70.00;;;;;;4981130;28;20571;-84
2021/07/02 02:22:24;;;;;;;7.80;6.40;;;17.40;69.80;;;;;;4981320;28;20199;-84
2021/07/02 02:24:50;;;;;;;12.23;6.90;;;17.40;69.90;;;;;;4984274;28;20179;-84
2021/07/02 02:27:16;;;;;;;14.80;7.80;;;17.30;70.00;;;;;;4985568;28;20410;-85
2021/07/02 02:29:42;;;;;;;12.73;7.07;;;17.30;70.10;;;;;;4986252;28;20418;-84
2021/07/02 02:32:07;;;;;;;13.10;7.07;;;17.20;70.10;;;;;;5004631;28;20444;-84
2021/07/02 02:34:33;;;;;;;9.33;5.90;;;17.20;70.00;;;;;;4988733;28;20183;-84
2021/07/02 02:36:59;;;;;;;13.30;7.40;;;17.30;69.90;;;;;;5009841;28;20190;-84
2021/07/02 02:39:25;;;;;;;14.80;7.28;;;17.20;70.20;;;;;;4986892;28;20496;-84
2021/07/02 02:41:51;;;;;;;9.90;6.97;;;17.20;70.40;;;;;;5000908;28;20671;-84
2021/07/02 02:44:19;;;;;;;11.10;7.03;;;17.20;71.00;;;;;;4983289;28;20535;-85
2021/07/02 02:46:45;;;;;;;11.77;7.50;;;17.10;70.70;;;;;;4998339;28;20425;-84
2021/07/02 02:49:11;;;;;;;8.13;5.80;;;17.10;71.10;;;;;;4987077;28;20191;-85
2021/07/02 02:51:37;;;;;;;10.87;7.30;;;17.20;70.50;;;;;;5000566;28;20211;-85
2021/07/02 02:54:03;;;;;;;11.57;7.53;;;17.20;70.40;;;;;;5001979;28;20426;-85
2021/07/02 02:56:28;;;;;;;12.00;6.70;;;17.10;70.40;;;;;;5001603;28;20270;-85
2021/07/02 02:58:54;;;;;;;11.90;6.97;;;17.00;71.40;;;;;;5018090;28;20457;-85
2021/07/02 03:01:20;;;;;;;10.17;6.47;;;17.10;71.50;;;;;;5017911;28;20203;-85
2021/07/02 03:03:46;;;;;;;11.70;6.77;;;17.00;71.40;;;;;;5000460;28;20534;-85
2021/07/02 03:06:12;;;;;;;9.93;5.63;;;17.00;71.80;;;;;;5014150;28;20418;-85
2021/07/02 03:08:38;;;;;;;11.40;7.07;;;17.10;71.40;;;;;;4997826;28;20183;-85
2021/07/02 03:11:04;;;;;;;10.75;6.75;;;17.00;71.00;;;;;;4999899;28;20477;-85
2021/07/02 03:13:30;;;;;;;11.80;7.00;;;17.00;71.50;;;;;;4999217;28;20207;-85
2021/07/02 03:15:56;;;;;;;16.03;6.67;;;17.10;71.10;;;;;;5015760;28;20222;-85
2021/07/02 03:18:21;;;;;;;7.33;5.80;;;17.10;70.70;;;;;;4999537;28;20206;-85
2021/07/02 03:20:47;;;;;;;8.97;6.20;;;17.10;71.10;;;;;;5015522;28;20182;-85
2021/07/02 03:23:13;;;;;;;10.87;6.10;;;17.00;71.20;;;;;;4999212;28;20190;-85
2021/07/02 03:25:39;;;;;;;9.40;7.03;;;17.20;70.70;;;;;;4999462;28;20258;-85
2021/07/02 03:28:05;;;;;;;21.40;7.27;;;17.20;70.20;;;;;;5000086;28;20429;-84
2021/07/02 03:30:30;;;;;;;9.45;6.90;;;17.20;69.90;;;;;;5003068;28;20176;-85
2021/07/02 03:32:56;;;;;;;8.53;6.20;;;17.20;70.00;;;;;;5001342;28;20190;-84
2021/07/02 03:35:22;;;;;;;13.40;6.90;;;17.10;70.10;;;;;;5001147;28;20418;-84
2021/07/02 03:37:47;;;;;;;14.37;7.37;;;17.00;70.20;;;;;;5001335;28;20313;-85
2021/07/02 03:40:14;;;;;;;12.10;6.57;;;16.90;70.60;;;;;;5000851;28;20221;-85
2021/07/02 03:42:40;;;;;;;12.48;6.20;;;17.00;70.50;;;;;;5001419;28;20210;-85
2021/07/02 03:45:06;;;;;;;8.13;5.93;;;16.90;70.70;;;;;;5001911;28;20225;-84
2021/07/02 03:47:32;;;;;;;14.05;7.95;;;16.90;70.90;;;;;;5001919;28;20178;-85
2021/07/02 03:49:59;;;;;;;9.53;6.70;;;16.90;71.10;;;;;;5002265;28;20183;-85
2021/07/02 03:52:24;;;;;;;8.07;6.05;;;16.80;71.10;;;;;;4984730;28;20491;-85
2021/07/02 03:54:51;;;;;;;10.07;6.53;;;17.00;70.70;;;;;;4985298;28;20214;-85
2021/07/02 03:57:20;;;;;;;8.40;6.57;;;16.90;70.70;;;;;;4984960;28;20418;-85
2021/07/02 03:59:48;;;;;;;10.55;7.90;;;16.90;70.70;;;;;;5002549;28;20203;-84
2021/07/02 04:02:14;;;;;;;15.70;7.95;;;16.80;70.60;;;;;;4983036;28;20234;-85
2021/07/02 04:04:41;;;;;;;16.05;6.55;;;16.70;71.20;;;;;;5001850;28;20314;-84
2021/07/02 04:07:09;;;;;;;12.18;7.50;;;16.70;72.00;;;;;;5005121;28;20256;-84
2021/07/02 04:09:35;;;;;;;11.25;7.28;;;16.70;72.40;;;;;;5002528;28;20183;-84
2021/07/02 04:12:01;;;;;;;12.53;7.47;;;16.70;72.00;;;;;;5000936;28;20207;-84
2021/07/02 04:14:28;;;;;;;13.55;6.93;;;16.70;71.90;;;;;;4984757;28;20423;-84
2021/07/02 04:16:54;;;;;;;14.95;7.22;;;16.70;72.30;;;;;;4984645;28;20198;-84
2021/07/02 04:19:20;;;;;;;10.35;6.97;;;16.80;72.00;;;;;;5002330;28;20227;-84
2021/07/02 04:21:47;;;;;;;19.43;7.57;;;16.70;72.30;;;;;;4983843;28;20198;-84
2021/07/02 04:24:13;;;;;;;10.38;7.43;;;16.80;72.70;;;;;;4989249;28;20425;-85
2021/07/02 04:26:39;;;;;;;13.02;7.35;;;17.00;71.90;;;;;;4984639;28;20219;-84
2021/07/02 04:29:05;;;;;;;12.50;7.30;;;16.90;71.70;;;;;;4983676;28;20194;-84
2021/07/02 04:31:31;;;;;;;13.65;7.10;;;16.80;72.20;;;;;;4984741;28;20195;-84
2021/07/02 04:33:57;;;;;;;13.75;7.70;;;16.80;72.40;;;;;;5003117;28;20186;-84
2021/07/02 04:36:23;;;;;;;15.17;7.73;;;16.80;72.90;;;;;;4985077;28;20670;-84
2021/07/02 04:38:49;;;;;;;13.00;7.87;;;16.80;73.10;;;;;;4984861;28;20241;-84
2021/07/02 04:41:14;;;;;;;11.80;7.77;;;17.00;72.90;;;;;;5002322;28;20255;-84
2021/07/02 04:43:40;;;;;;;15.90;7.60;;;17.20;71.40;;;;;;4983051;28;20426;-84
2021/07/02 04:46:06;;;;;;;14.53;8.60;;;17.40;69.90;;;;;;4981586;28;20207;-84
2021/07/02 04:48:32;;;;;;;11.50;7.03;;;17.50;69.40;;;;;;5000160;28;20506;-85
2021/07/02 04:50:57;;;;;;;17.80;9.70;;;17.40;68.90;;;;;;4982910;28;20199;-85
2021/07/02 04:53:23;;;;;;;11.63;7.57;;;17.40;68.70;;;;;;4984521;28;20426;-83
2021/07/02 04:55:49;;;;;;;12.67;7.80;;;17.40;68.80;;;;;;5007196;28;20215;-84
2021/07/02 04:58:17;;;;;;;19.90;8.30;;;17.30;69.10;;;;;;4987072;28;20183;-84
2021/07/02 05:00:43;;;;;;;10.75;8.23;;;17.30;69.50;;;;;;4985632;28;20183;-83
2021/07/02 05:03:09;;;;;;;10.57;8.13;;;17.30;69.20;;;;;;4986997;28;20281;-84
2021/07/02 05:05:35;;;;;;;12.90;9.07;;;17.30;69.50;;;;;;4986400;28;20191;-83
2021/07/02 05:08:02;;;;;;;11.88;8.10;;;17.20;70.00;;;;;;5003056;28;20179;-83
2021/07/02 05:10:28;;;;;;;17.45;10.43;;;17.30;70.40;;;;;;4986041;28;20179;-83
2021/07/02 05:12:54;;;;;;;12.57;9.03;;;17.40;70.20;;;;;;4986529;28;20206;-83
2021/07/02 05:15:20;;;;;;;16.43;9.00;;;17.50;69.60;;;;;;5003312;28;20501;-84
2021/07/02 05:17:46;;;;;;;16.70;10.10;;;17.50;70.00;;;;;;5009987;28;20435;-84
2021/07/02 05:20:12;;;;;;;21.92;10.85;;;17.60;69.40;;;;;;4987331;28;20466;-84
2021/07/02 05:22:38;;;;;;;16.50;9.30;;;17.50;69.20;;;;;;5002005;28;20191;-83
2021/07/02 05:25:06;;;;;;;17.30;10.57;;;17.50;69.70;;;;;;4985764;28;20189;-83
2021/07/02 05:27:32;;;;;;;22.02;10.52;;;17.40;70.50;;;;;;5001042;28;20151;-84
2021/07/02 05:29:57;;;;;;;15.30;9.20;;;17.50;71.10;;;;;;4999584;28;20175;-83
2021/07/02 05:32:23;;;;;;;17.33;9.57;;;17.60;71.10;;;;;;4998255;28;20574;-85
2021/07/02 05:34:49;;;;;;;17.70;10.87;;;17.80;69.90;;;;;;4987429;28;20183;-82
2021/07/02 05:37:14;;;;;;;17.83;11.80;;;18.00;68.70;;;;;;4986253;28;20199;-83
2021/07/02 05:39:40;;;;;;;20.03;9.37;;;18.00;68.10;;;;;;4983892;28;20203;-82
2021/07/02 05:42:06;;;;;;;21.83;13.57;;;17.90;67.70;;;;;;5001153;28;20199;-83
2021/07/02 05:44:32;;;;;;;24.40;10.63;;;18.00;67.50;;;;;;4983450;28;20189;-83
2021/07/02 05:46:58;;;;;;;18.95;10.18;;;17.90;67.50;;;;;;4997824;28;20202;-83
2021/07/02 05:49:24;;;;;;;18.30;10.27;;;17.90;67.70;;;;;;4996424;28;20194;-83
2021/07/02 05:51:49;;;;;;;13.77;9.03;;;17.90;67.90;;;;;;4976879;28;20621;-83
2021/07/02 05:54:15;;;;;;;19.93;12.10;;;17.90;67.90;;;;;;4982721;28;20434;-83
2021/07/02 05:56:42;;;;;;;18.17;10.40;;;18.00;68.10;;;;;;4987037;28;20384;-83
2021/07/02 05:59:08;;;;;;;20.73;10.88;;;18.10;67.90;;;;;;5003497;28;20198;-82
2021/07/02 06:01:34;;;;;;;17.93;11.17;;;18.00;67.70;;;;;;4970178;28;20222;-83
2021/07/02 06:03:59;;;;;;;16.43;9.60;;;18.10;68.20;;;;;;5007432;28;20441;-83
2021/07/02 06:06:25;;;;;;;20.07;10.90;;;18.30;67.70;;;;;;4987638;28;20418;-83
2021/07/02 06:08:52;;;;;;;20.93;11.33;;;18.40;67.10;;;;;;5005400;28;20171;-83
2021/07/02 06:11:19;;;;;;;15.38;10.85;;;18.40;66.70;;;;;;4990193;28;20757;-82
2021/07/02 06:13:45;;;;;;;17.58;10.20;;;18.40;66.70;;;;;;4988221;28;20187;-82
2021/07/02 06:16:12;;;;;;;17.70;10.32;;;18.40;66.70;;;;;;4987465;28;20245;-83
2021/07/02 06:18:37;;;;;;;15.40;8.30;;;18.40;66.40;;;;;;4990155;28;20207;-82
2021/07/02 06:21:03;;;;;;;16.90;9.10;;;18.50;66.80;;;;;;5008279;28;20191;-85
2021/07/02 06:23:33;;;;;;;25.33;10.73;;;18.70;67.30;;;;;;4991103;28;20182;-82
2021/07/02 06:26:00;;;;;;;11.45;7.97;;;19.00;67.10;;;;;;5005884;28;20172;-82
2021/07/02 06:28:28;;;;;;;18.75;7.85;;;19.30;66.10;;;;;;5007715;28;20552;-82
2021/07/02 06:30:56;;;;;;;16.95;7.53;;;19.60;65.40;;;;;;4989638;28;20199;-83
2021/07/02 06:33:23;;;;;;;11.77;6.88;;;20.00;61.40;;;;;;4990415;28;20180;-83
2021/07/02 06:35:49;;;;;;;11.07;6.38;;;20.30;60.30;;;;;;4989008;28;20179;-83
2021/07/02 06:38:16;;;;;;;13.70;6.70;;;20.50;61.10;;;;;;4987969;28;20183;-83
2021/07/02 06:40:43;;;;;;;8.17;6.10;;;21.10;60.80;;;;;;4985801;28;20418;-83
2021/07/02 06:43:08;;;;;;;16.87;6.50;;;21.80;58.00;;;;;;4986501;28;20420;-83
2021/07/02 06:45:34;;;;;;;17.37;7.73;;;22.00;56.00;;;;;;5003927;28;20457;-83
2021/07/02 06:48:02;;;;;;;9.13;6.87;;;22.10;55.40;;;;;;4986117;28;20176;-83
2021/07/02 06:50:30;;;;;;;11.60;6.40;;;21.90;55.10;;;;;;4986081;28;20183;-84
2021/07/02 06:52:57;;;;;;;18.50;7.70;;;21.80;55.00;;;;;;4986736;28;20418;-84
2021/07/02 06:55:24;;;;;;;13.27;7.13;;;21.80;55.30;;;;;;4987323;28;20485;-83
2021/07/02 06:57:49;;;;;;;11.47;6.70;;;21.80;55.10;;;;;;4986681;28;20811;-84
2021/07/02 07:00:19;;;;;;;21.53;7.57;;;21.90;55.40;;;;;;5003052;28;20548;-85
2021/07/02 07:02:46;;;;;;;11.23;7.63;;;21.90;54.60;;;;;;4986591;28;20217;-83
2021/07/02 07:05:12;;;;;;;9.77;7.60;;;21.90;54.80;;;;;;4989544;28;20478;-83
2021/07/02 07:07:38;;;;;;;11.67;8.20;;;22.00;55.10;;;;;;4988907;28;20414;-83
2021/07/02 07:10:04;;;;;;;20.37;8.60;;;22.00;55.30;;;;;;5003520;28;20791;-83
2021/07/02 07:12:30;;;;;;;13.90;7.70;;;22.10;54.20;;;;;;5006834;28;20621;-83
2021/07/02 07:14:56;;;;;;;12.40;8.67;;;22.10;53.50;;;;;;4989858;28;20441;-83
2021/07/02 07:17:22;;;;;;;12.37;8.83;;;22.20;54.30;;;;;;4990094;28;20489;-84
2021/07/02 07:19:48;;;;;;;14.33;10.10;;;22.10;54.50;;;;;;4989357;28;20211;-83
2021/07/02 07:22:13;;;;;;;19.60;8.80;;;22.20;54.10;;;;;;5007749;28;20191;-83
2021/07/02 07:24:39;;;;;;;14.80;8.20;;;22.40;53.70;;;;;;4989086;28;20490;-83
2021/07/02 07:27:06;;;;;;;19.33;8.73;;;22.60;53.40;;;;;;4988197;28;20477;-83
2021/07/02 07:29:32;;;;;;;21.63;9.87;;;22.60;53.40;;;;;;4989295;28;20438;-83
2021/07/02 07:32:00;;;;;;;17.07;9.33;;;22.60;53.20;;;;;;4988559;28;20446;-83
2021/07/02 07:34:33;;;;;;;14.47;8.93;;;22.50;52.80;;;;;;5006756;28;20183;-83
2021/07/02 07:37:03;;;;;;;16.53;9.23;;;22.40;53.50;;;;;;4989205;28;20426;-83
2021/07/02 07:39:29;;;;;;;17.63;8.30;;;22.40;54.00;;;;;;4988495;28;20504;-84
2021/07/02 07:41:55;;;;;;;22.10;9.00;;;22.30;54.00;;;;;;4987553;28;20447;-84
2021/07/02 07:44:21;;;;;;;14.87;10.17;;;22.40;54.20;;;;;;4988578;28;20206;-84
2021/07/02 07:46:47;;;;;;;19.23;10.80;;;22.30;53.50;;;;;;5005267;28;20482;-84
2021/07/02 07:49:13;;;;;;;16.77;10.90;;;22.10;54.80;;;;;;4988199;28;20187;-83
2021/07/02 07:51:49;;;;;;;24.23;11.97;;;22.10;55.20;;;;;;4987890;28;20235;-83
2021/07/02 07:54:14;;;;;;;28.60;14.73;;;21.90;55.40;;;;;;4989015;28;20820;-83
2021/07/02 07:56:50;;;;;;;23.50;12.63;;;21.80;55.80;;;;;;5006131;28;20418;-83
2021/07/02 07:59:28;;;;;;;22.48;13.55;;;21.50;56.60;;;;;;5013076;28;20195;-83
2021/07/02 08:01:54;;;;;;;27.60;14.70;;;21.30;57.60;;;;;;5005947;28;20219;-83
2021/07/02 08:04:20;;;;;;;22.40;13.47;;;21.30;58.30;;;;;;4989009;28;20179;-83
2021/07/02 08:06:47;;;;;;;21.97;12.23;;;21.40;58.10;;;;;;4988043;28;20836;-84
2021/07/02 08:09:14;;;;;;;18.30;12.23;;;21.50;58.10;;;;;;4986228;28;20419;-83
2021/07/02 08:11:40;;;;;;;26.90;12.60;;;21.80;57.70;;;;;;4983093;28;20803;-83
2021/07/02 08:14:07;;;;;;;16.83;11.80;;;22.00;56.70;;;;;;4981283;28;20423;-83
2021/07/02 08:16:33;;;;;;;16.80;12.53;;;22.30;56.10;;;;;;4999111;28;20418;-83
2021/07/02 08:19:00;;;;;;;22.10;13.67;;;22.70;55.50;;;;;;5008044;28;20480;-83
2021/07/02 08:21:26;;;;;;;20.80;12.10;;;23.00;54.60;;;;;;4990707;28;20473;-83
2021/07/02 08:23:52;;;;;;;19.37;12.20;;;23.10;53.80;;;;;;4992246;28;20838;-85
2021/07/02 08:26:19;;;;;;;18.40;10.97;;;23.20;53.40;;;;;;4990965;28;20541;-85
2021/07/02 08:31:30;;;;;;;25.07;13.50;;;23.70;52.30;;;;;;5006677;28;20449;-85
2021/07/02 08:33:56;;;;;;;23.53;11.30;;;23.70;52.30;;;;;;4991697;28;20432;-83
2021/07/02 08:36:22;;;;;;;23.13;11.13;;;23.40;51.70;;;;;;5007602;28;20484;-83
2021/07/02 08:38:48;;;;;;;17.30;11.13;;;23.00;52.20;;;;;;4988400;28;20457;-83
2021/07/02 08:41:14;;;;;;;22.10;12.33;;;23.10;52.70;;;;;;4987933;28;20447;-83
2021/07/02 08:43:42;;;;;;;16.40;12.20;;;23.30;53.50;;;;;;4988696;28;20179;-83
2021/07/02 08:46:20;;;;;;;24.53;11.50;;;23.20;52.60;;;;;;5003874;28;20410;-83
2021/07/02 08:48:48;;;;;;;22.40;12.57;;;23.60;52.60;;;;;;4987630;28;20418;-84
2021/07/02 08:51:14;;;;;;;19.10;12.17;;;23.20;52.50;;;;;;4987852;28;20478;-84
2021/07/02 08:53:41;;;;;;;22.50;12.93;;;23.10;53.30;;;;;;5004955;28;20441;-84
2021/07/02 08:56:08;;;;;;;22.53;11.83;;;23.60;52.90;;;;;;4986928;28;20494;-84
2021/07/02 08:58:36;;;;;;;20.27;11.63;;;23.80;52.80;;;;;;4987016;28;20493;-84
2021/07/02 09:01:07;;;;;;;20.67;12.20;;;24.00;51.90;;;;;;4987112;28;20464;-84
2021/07/02 09:03:37;;;;;;;20.30;13.30;;;24.10;50.90;;;;;;4993594;28;20445;-85
2021/07/02 09:06:09;;;;;;;24.60;11.60;;;24.30;50.80;;;;;;4987939;28;20454;-85
2021/07/02 09:08:35;;;;;;;23.97;13.40;;;24.20;50.70;;;;;;5007023;28;20489;-85
2021/07/02 09:11:21;;;;;;;22.97;16.10;;;24.30;50.40;;;;;;4996909;28;20529;-83
2021/07/02 09:13:47;;;;;;;27.50;16.00;;;23.50;51.30;;;;;;4987592;28;20482;-83
2021/07/02 09:16:27;;;;;;;24.60;15.20;;;23.20;52.50;;;;;;4987818;28;20952;-83
2021/07/02 09:18:53;;;;;;;21.83;15.40;;;22.90;53.80;;;;;;4988128;28;20210;-84
2021/07/02 09:21:26;;;;;;;30.57;16.53;;;23.00;54.40;;;;;;4987493;28;20453;-84
2021/07/02 09:23:52;;;;;;;33.50;16.87;;;22.90;55.10;;;;;;5004478;28;20394;-84
2021/07/02 09:26:38;;;;;;;26.90;17.83;;;22.80;55.50;;;;;;4989416;28;20489;-84
2021/07/02 09:29:23;;;;;;;27.07;15.70;;;22.60;55.60;;;;;;4988738;28;20937;-84
2021/07/02 09:32:09;;;;;;;27.23;18.27;;;22.60;56.50;;;;;;4986878;28;20439;-85
2021/07/02 09:34:54;;;;;;;25.50;18.50;;;22.30;56.70;;;;;;4929708;29;20421;-84
2021/07/02 09:37:25;;;;;;;29.90;17.00;;;22.20;57.70;;;;;;4929439;29;20416;-84
2021/07/02 09:39:51;;;;;;;25.47;15.60;;;22.20;57.50;;;;;;4945333;29;20457;-85
2021/07/02 09:42:25;;;;;;;25.03;14.10;;;22.30;58.20;;;;;;4930507;29;20433;-85
2021/07/02 09:45:06;;;;;;;22.77;15.67;;;22.40;57.90;;;;;;4931817;29;20432;-85
2021/07/02 09:47:32;;;;;;;23.73;14.70;;;22.70;56.60;;;;;;4946668;29;20928;-86
2021/07/02 09:50:18;;;;;;;25.70;13.37;;;22.80;56.30;;;;;;4944201;29;20597;-85
2021/07/02 09:53:06;;;;;;;24.53;13.60;;;23.00;55.10;;;;;;4949335;29;20444;-83
2021/07/02 09:55:43;;;;;;;23.70;14.93;;;23.20;55.70;;;;;;4946957;29;20434;-83
2021/07/02 09:58:14;;;;;;;19.10;14.97;;;23.30;55.00;;;;;;4963275;29;20495;-84
2021/07/02 10:00:41;;;;;;;20.60;14.03;;;23.30;55.40;;;;;;4946789;29;20439;-84
2021/07/02 10:03:07;;;;;;;22.30;15.17;;;23.60;55.40;;;;;;4963485;28;20436;-85
2021/07/02 10:05:55;;;;;;;26.97;16.83;;;23.70;54.60;;;;;;4966018;28;20546;-85
2021/07/02 10:08:24;;;;;;;24.03;16.17;;;23.60;55.10;;;;;;4985865;28;20445;-84
2021/07/02 10:10:51;;;;;;;22.60;15.20;;;23.60;55.10;;;;;;5002816;28;20422;-84
2021/07/02 10:13:19;;;;;;;21.40;16.00;;;23.50;55.20;;;;;;5006187;28;20774;-84
2021/07/02 10:15:45;;;;;;;22.27;15.07;;;23.20;55.20;;;;;;4986657;28;20925;-84
2021/07/02 10:18:14;;;;;;;24.60;16.47;;;23.30;56.00;;;;;;5002692;28;20461;-85
2021/07/02 10:20:42;;;;;;;24.83;16.20;;;23.00;56.10;;;;;;5001435;28;20438;-84
2021/07/02 10:23:08;;;;;;;32.13;16.53;;;23.10;56.60;;;;;;4987811;28;20430;-84
2021/07/02 10:25:35;;;;;;;27.17;18.87;;;23.30;57.10;;;;;;5001683;28;20643;-85
2021/07/02 10:28:01;;;;;;;27.23;16.13;;;22.80;56.90;;;;;;4985813;28;20434;-86
2021/07/02 10:30:27;;;;;;;22.27;16.33;;;22.70;58.00;;;;;;4983112;28;20485;-85
2021/07/02 10:32:58;;;;;;;33.37;16.33;;;22.70;58.90;;;;;;4983999;28;20286;-85
2021/07/02 10:35:24;;;;;;;27.77;16.67;;;22.40;59.40;;;;;;4986123;28;20461;-85
2021/07/02 10:37:56;;;;;;;26.60;17.37;;;22.50;59.50;;;;;;5001992;28;20505;-87
2021/07/02 10:40:41;;;;;;;27.77;17.00;;;22.20;59.60;;;;;;4985485;28;20466;-86
2021/07/02 10:43:22;;;;;;;21.40;14.80;;;22.20;60.20;;;;;;5003406;28;20394;-85
2021/07/02 10:46:16;;;;;;;30.50;16.87;;;22.60;59.90;;;;;;5005467;28;20429;-86
2021/07/02 10:48:51;;;;;;;24.13;15.13;;;23.10;58.00;;;;;;4988918;28;20414;-85
2021/07/02 10:51:34;;;;;;;24.60;14.70;;;23.10;58.00;;;;;;4988785;28;20504;-85
2021/07/02 10:54:15;;;;;;;22.90;14.63;;;23.00;57.90;;;;;;4990500;28;20414;-85
2021/07/02 10:56:57;;;;;;;22.30;13.93;;;22.70;58.50;;;;;;4992022;28;20522;-85
2021/07/02 10:59:38;;;;;;;19.33;12.97;;;23.10;57.70;;;;;;4988217;28;20461;-85
2021/07/02 11:02:07;;;;;;;22.10;14.40;;;23.40;57.00;;;;;;4987221;28;20545;-85
2021/07/02 11:04:37;;;;;;;22.53;13.40;;;23.50;55.80;;;;;;4988622;28;20414;-85
2021/07/02 11:07:10;;;;;;;19.47;12.33;;;23.20;56.70;;;;;;4990286;28;20411;-85
2021/07/02 11:09:52;;;;;;;15.43;12.10;;;22.70;58.10;;;;;;4969585;28;20442;-86
2021/07/02 11:12:19;;;;;;;17.67;11.00;;;22.40;59.10;;;;;;4981462;28;20446;-86
2021/07/02 11:14:54;;;;;;;24.53;12.40;;;22.30;59.40;;;;;;4982750;28;20430;-85
2021/07/02 11:17:50;;;;;;;19.53;12.07;;;22.20;60.20;;;;;;5006295;28;20437;-83
2021/07/02 11:20:17;;;;;;;26.00;12.13;;;22.50;59.80;;;;;;4979329;28;20992;-84
2021/07/02 11:22:45;;;;;;;21.70;12.87;;;22.80;58.60;;;;;;4989212;28;20454;-83
2021/07/02 11:25:16;;;;;;;18.50;13.20;;;22.60;59.10;;;;;;4988627;28;20438;-85
2021/07/02 11:27:45;;;;;;;22.17;11.80;;;22.60;59.40;;;;;;4988239;28;20418;-83
2021/07/02 11:30:29;;;;;;;14.00;11.03;;;23.00;58.00;;;;;;4987564;28;20434;-84
2021/07/02 11:32:58;;;;;;;16.60;10.50;;;23.40;57.40;;;;;;4987394;28;20447;-84
2021/07/02 11:35:56;;;;;;;17.97;10.77;;;23.70;56.70;;;;;;4991930;28;20433;-83
2021/07/02 11:38:23;;;;;;;15.20;11.97;;;23.40;57.10;;;;;;4992714;28;20410;-83
2021/07/02 11:40:53;;;;;;;15.83;10.07;;;23.40;56.70;;;;;;5019868;28;20940;-83
2021/07/02 11:43:20;;;;;;;18.20;9.87;;;23.60;57.10;;;;;;5019813;28;20397;-83
2021/07/02 11:45:52;;;;;;;16.53;12.30;;;23.70;57.10;;;;;;5014675;28;20958;-84
2021/07/02 11:48:21;;;;;;;15.43;10.27;;;23.80;56.40;;;;;;5001790;28;20403;-84
2021/07/02 11:50:49;;;;;;;17.30;11.53;;;23.70;55.80;;;;;;5000467;28;20430;-84
2021/07/02 11:53:34;;;;;;;26.80;11.67;;;23.60;55.80;;;;;;4984684;28;20423;-84
2021/07/02 11:56:05;;;;;;;16.97;11.90;;;23.40;56.10;;;;;;4985188;28;20486;-85
2021/07/02 11:58:51;;;;;;;16.60;10.93;;;23.80;56.20;;;;;;5001705;28;20406;-84
2021/07/02 12:01:25;;;;;;;15.43;12.17;;;24.10;55.30;;;;;;4984900;28;20442;-84
2021/07/02 12:03:57;;;;;;;16.07;11.47;;;24.10;54.70;;;;;;4984854;28;20426;-84
2021/07/02 12:06:28;;;;;;;18.80;12.60;;;24.60;53.10;;;;;;4985078;28;20414;-84
2021/07/02 12:09:00;;;;;;;16.10;11.97;;;25.10;51.30;;;;;;4985028;28;20418;-84
2021/07/02 12:11:38;;;;;;;18.90;11.50;;;25.30;50.40;;;;;;4984006;28;20438;-84
2021/07/02 12:14:06;;;;;;;17.90;10.97;;;25.40;50.40;;;;;;4985254;28;20448;-84
2021/07/02 12:16:38;;;;;;;20.20;10.53;;;25.20;50.20;;;;;;4985395;28;20421;-84
2021/07/02 12:19:06;;;;;;;15.67;9.83;;;25.20;51.40;;;;;;4989684;28;20989;-84
2021/07/02 12:21:33;;;;;;;15.53;10.40;;;25.40;51.30;;;;;;4984858;28;20462;-84
2021/07/02 12:24:03;;;;;;;13.73;10.53;;;25.50;50.40;;;;;;4985217;28;20505;-84
2021/07/02 12:26:31;;;;;;;15.10;10.50;;;25.10;50.30;;;;;;5002389;28;20433;-84
2021/07/02 12:29:05;;;;;;;14.83;9.67;;;25.20;50.00;;;;;;4985293;28;20422;-84
2021/07/02 12:31:44;;;;;;;18.47;11.10;;;25.10;49.30;;;;;;4984890;28;20453;-84
2021/07/02 12:34:20;;;;;;;16.73;11.67;;;25.00;50.50;;;;;;5002585;28;20406;-84
2021/07/02 12:36:54;;;;;;;17.63;10.80;;;25.20;50.50;;;;;;4986019;28;20544;-84
2021/07/02 12:39:20;;;;;;;17.87;11.07;;;25.10;50.10;;;;;;4984275;28;21063;-84
2021/07/02 12:41:49;;;;;;;14.97;11.70;;;24.90;51.50;;;;;;4983730;28;21000;-84